Time,TemperatureF,DewpointF,PressureIn,WindDirection,WindDirectionDegrees,WindSpeedMPH,WindSpeedGustMPH,Humidity,HourlyPrecipIn,Conditions,Clouds,dailyrainin,SolarRadiationWatts/m^2,SoftwareType,DateUTC
2013-09-14 00:00:00,61.7,45.8,19.24,ESE,123,4.0,4.0,56,0.00,,,0.00,0,Wunderground v.1.15,2013-09-14 05:00:00,
2013-09-14 00:05:00,61.6,46.2,19.24,ENE,72,3.0,4.0,57,0.00,,,0.00,0,Wunderground v.1.15,2013-09-14 05:05:00,
2013-09-14 00:15:00,61.4,46.0,19.24,SSE,148,3.0,3.0,57,0.00,,,0.00,0,Wunderground v.1.15,2013-09-14 05:15:00,
2013-09-14 00:25:00,61.2,46.3,19.24,East,98,2.0,2.0,58,0.00,,,0.00,0,Wunderground v.1.15,2013-09-14 05:25:00,
2013-09-14 00:30:00,61.0,46.1,19.24,East,101,2.0,2.0,58,0.00,,,0.00,0,Wunderground v.1.15,2013-09-14 05:30:00,
2013-09-14 00:40:00,60.5,46.1,19.24,ESE,107,2.0,2.0,59,0.00,,,0.00,0,Wunderground v.1.15,2013-09-14 05:40:00,
2013-09-14 00:45:00,60.4,46.0,19.24,ESE,113,2.0,2.0,59,0.00,,,0.00,0,Wunderground v.1.15,2013-09-14 05:45:00,
2013-09-14 00:55:00,60.0,46.1,19.24,East,80,2.0,2.0,60,0.00,,,0.00,0,Wunderground v.1.15,2013-09-14 05:55:00,
2013-09-14 01:05:00,59.5,46.0,19.24,ESE,109,2.0,3.0,61,0.00,,,0.00,0,Wunderground v.1.15,2013-09-14 06:05:00,
2013-09-14 01:10:00,59.3,45.8,19.24,ESE,120,1.0,2.0,61,0.00,,,0.00,0,Wunderground v.1.15,2013-09-14 06:10:00,
2013-09-14 01:20:00,58.5,45.9,19.24,East,98,2.0,2.0,63,0.00,,,0.00,0,Wunderground v.1.15,2013-09-14 06:20:00,
2013-09-14 01:30:00,58.1,46.0,19.24,ESE,109,1.0,1.0,64,0.00,,,0.00,0,Wunderground v.1.15,2013-09-14 06:30:00,
2013-09-14 01:40:00,57.8,45.7,19.24,ESE,118,2.0,2.0,64,0.00,,,0.00,0,Wunderground v.1.15,2013-09-14 06:40:00,
2013-09-14 01:45:00,57.8,45.7,19.24,ESE,112,2.0,2.0,64,0.00,,,0.00,0,Wunderground v.1.15,2013-09-14 06:45:00,
2013-09-14 01:50:00,57.8,45.7,19.24,ESE,110,2.0,4.0,64,0.00,,,0.00,0,Wunderground v.1.15,2013-09-14 06:50:00,
2013-09-14 01:55:00,57.7,46.0,19.24,East,96,2.0,4.0,65,0.00,,,0.00,0,Wunderground v.1.15,2013-09-14 06:55:00,
2013-09-14 02:05:00,57.6,45.9,19.24,SE,139,2.0,4.0,65,0.00,,,0.00,0,Wunderground v.1.15,2013-09-14 07:05:00,
2013-09-14 02:15:00,57.3,45.6,19.24,ESE,122,2.0,2.0,65,0.00,,,0.00,0,Wunderground v.1.15,2013-09-14 07:15:00,
2013-09-14 02:20:00,57.3,45.6,19.24,East,85,2.0,2.0,65,0.00,,,0.00,0,Wunderground v.1.15,2013-09-14 07:20:00,
2013-09-14 02:30:00,57.2,45.5,19.24,ESE,120,1.0,2.0,65,0.00,,,0.00,0,Wunderground v.1.15,2013-09-14 07:30:00,
2013-09-14 02:35:00,56.9,45.3,19.24,ESE,117,2.0,2.0,65,0.00,,,0.00,0,Wunderground v.1.15,2013-09-14 07:35:00,
2013-09-14 02:45:00,56.5,45.3,19.24,ESE,117,2.0,3.0,66,0.00,,,0.00,0,Wunderground v.1.15,2013-09-14 07:45:00,
2013-09-14 02:55:00,56.4,45.2,19.24,East,91,1.0,3.0,66,0.00,,,0.00,0,Wunderground v.1.15,2013-09-14 07:55:00,
2013-09-14 03:05:00,56.1,45.3,19.24,SE,142,2.0,3.0,67,0.00,,,0.00,0,Wunderground v.1.15,2013-09-14 08:05:00,
2013-09-14 03:10:00,55.9,45.1,19.24,SSE,148,2.0,2.0,67,0.00,,,0.00,0,Wunderground v.1.15,2013-09-14 08:10:00,
2013-09-14 03:20:00,55.1,45.1,19.24,SSE,148,0.0,1.0,69,0.00,,,0.00,0,Wunderground v.1.15,2013-09-14 08:20:00,
2013-09-14 03:30:00,54.9,45.3,19.24,SE,136,1.0,1.0,70,0.00,,,0.00,0,Wunderground v.1.15,2013-09-14 08:30:00,
2013-09-14 03:35:00,54.3,45.1,19.24,SE,134,0.0,4.0,71,0.00,,,0.00,0,Wunderground v.1.15,2013-09-14 08:35:00,
2013-09-14 03:45:00,53.4,45.0,19.24,SE,134,0.0,0.0,73,0.00,,,0.00,0,Wunderground v.1.15,2013-09-14 08:45:00,
2013-09-14 03:50:00,53.1,45.0,19.24,SE,134,0.0,0.0,74,0.00,,,0.00,0,Wunderground v.1.15,2013-09-14 08:50:00,
2013-09-14 04:00:00,52.7,45.0,19.24,SE,134,0.0,0.0,75,0.00,,,0.00,0,Wunderground v.1.15,2013-09-14 09:00:00,
2013-09-14 04:10:00,52.1,45.1,19.24,SE,134,0.0,0.0,77,0.00,,,0.00,0,Wunderground v.1.15,2013-09-14 09:10:00,
2013-09-14 04:20:00,51.6,45.0,19.24,SE,134,0.0,0.0,78,0.00,,,0.00,0,Wunderground v.1.15,2013-09-14 09:20:00,
2013-09-14 04:30:00,50.3,44.4,19.24,SE,135,0.0,0.0,80,0.00,,,0.00,0,Wunderground v.1.15,2013-09-14 09:30:00,
2013-09-14 04:35:00,49.9,44.6,19.24,SE,135,0.0,0.0,82,0.00,,,0.00,0,Wunderground v.1.15,2013-09-14 09:35:00,
2013-09-14 04:45:00,49.9,45.3,19.24,SE,135,0.0,0.0,84,0.00,,,0.00,0,Wunderground v.1.15,2013-09-14 09:45:00,
2013-09-14 04:55:00,50.4,45.4,19.24,SE,135,0.0,0.0,83,0.00,,,0.00,0,Wunderground v.1.15,2013-09-14 09:55:00,
2013-09-14 05:05:00,50.5,45.2,19.24,SE,135,0.0,0.0,82,0.00,,,0.00,0,Wunderground v.1.15,2013-09-14 10:05:00,
2013-09-14 05:10:00,50.7,45.1,19.24,SE,135,0.0,0.0,81,0.00,,,0.00,0,Wunderground v.1.15,2013-09-14 10:10:00,
2013-09-14 05:20:00,50.9,45.3,19.24,SE,134,0.0,0.0,81,0.00,,,0.00,0,Wunderground v.1.15,2013-09-14 10:20:00,
2013-09-14 05:30:00,50.5,44.6,19.24,SE,134,0.0,0.0,80,0.00,,,0.00,0,Wunderground v.1.15,2013-09-14 10:30:00,
2013-09-14 05:35:00,49.3,44.0,19.24,SE,134,0.0,0.0,82,0.00,,,0.00,0,Wunderground v.1.15,2013-09-14 10:35:00,
2013-09-14 05:45:00,48.5,44.2,19.24,SE,134,0.0,0.0,85,0.00,,,0.00,0,Wunderground v.1.15,2013-09-14 10:45:00,
2013-09-14 05:55:00,49.0,44.7,19.24,SE,134,0.0,0.0,85,0.00,,,0.00,0,Wunderground v.1.15,2013-09-14 10:55:00,
2013-09-14 06:00:00,49.3,44.7,19.24,SE,134,0.0,0.0,84,0.00,,,0.00,0,Wunderground v.1.15,2013-09-14 11:00:00,
2013-09-14 06:10:00,49.7,44.4,19.24,SE,134,0.0,0.0,82,0.00,,,0.00,0,Wunderground v.1.15,2013-09-14 11:10:00,
2013-09-14 06:20:00,49.4,44.1,19.24,SE,134,0.0,0.0,82,0.00,,,0.00,0,Wunderground v.1.15,2013-09-14 11:20:00,
2013-09-14 06:30:00,49.6,44.3,19.24,SE,134,0.0,0.0,82,0.00,,,0.00,0,Wunderground v.1.15,2013-09-14 11:30:00,
2013-09-14 06:35:00,49.6,44.3,19.24,SE,134,0.0,0.0,82,0.00,,,0.00,0,Wunderground v.1.15,2013-09-14 11:35:00,
2013-09-14 06:40:00,49.6,44.0,19.24,SE,134,0.0,0.0,81,0.00,,,0.00,0,Wunderground v.1.15,2013-09-14 11:40:00,
2013-09-14 06:50:00,49.5,43.9,19.24,SE,134,0.0,0.0,81,0.00,,,0.00,5,Wunderground v.1.15,2013-09-14 11:50:00,
2013-09-14 07:00:00,49.2,43.6,19.24,SE,134,0.0,0.0,81,0.00,,,0.00,9,Wunderground v.1.15,2013-09-14 12:00:00,
2013-09-14 07:05:00,49.1,43.5,19.24,SE,134,0.0,0.0,81,0.00,,,0.00,12,Wunderground v.1.15,2013-09-14 12:05:00,
2013-09-14 07:15:00,48.9,43.6,19.24,SE,134,0.0,0.0,82,0.00,,,0.00,18,Wunderground v.1.15,2013-09-14 12:15:00,
2013-09-14 07:25:00,48.7,43.5,19.24,SE,134,0.0,0.0,82,0.00,,,0.00,46,Wunderground v.1.15,2013-09-14 12:25:00,
2013-09-14 07:30:00,48.7,43.8,19.24,SE,134,0.0,0.0,83,0.00,,,0.00,72,Wunderground v.1.15,2013-09-14 12:30:00,
2013-09-14 07:40:00,48.8,44.2,19.24,NE,51,0.0,0.0,84,0.00,,,0.00,120,Wunderground v.1.15,2013-09-14 12:40:00,
2013-09-14 07:50:00,50.3,45.3,19.24,NE,46,0.0,0.0,83,0.00,,,0.00,32,Wunderground v.1.15,2013-09-14 12:50:00,
2013-09-14 07:55:00,50.9,45.6,19.24,ESE,122,0.0,0.0,82,0.00,,,0.00,167,Wunderground v.1.15,2013-09-14 12:55:00,
2013-09-14 08:05:00,52.8,46.8,19.24,SE,133,0.0,0.0,80,0.00,,,0.00,197,Wunderground v.1.15,2013-09-14 13:05:00,
2013-09-14 08:15:00,55.5,46.6,19.24,SE,140,1.0,1.0,72,0.00,,,0.00,230,Wunderground v.1.15,2013-09-14 13:15:00,
2013-09-14 08:20:00,56.6,46.2,19.24,ESE,103,2.0,3.0,68,0.00,,,0.00,248,Wunderground v.1.15,2013-09-14 13:20:00,
2013-09-14 08:30:00,57.8,46.5,19.24,ESE,122,3.0,3.0,66,0.00,,,0.00,281,Wunderground v.1.15,2013-09-14 13:30:00,
2013-09-14 08:40:00,58.5,46.8,19.24,ESE,121,3.0,3.0,65,0.00,,,0.00,315,Wunderground v.1.15,2013-09-14 13:40:00,
2013-09-14 08:45:00,58.6,46.5,19.24,ESE,102,3.0,4.0,64,0.00,,,0.00,332,Wunderground v.1.15,2013-09-14 13:45:00,
2013-09-14 08:55:00,59.1,46.5,19.24,ESE,109,4.0,4.0,63,0.00,,,0.00,367,Wunderground v.1.15,2013-09-14 13:55:00,
2013-09-14 09:05:00,59.6,47.4,19.24,South,175,3.0,5.0,64,0.00,,,0.00,403,Wunderground v.1.15,2013-09-14 14:05:00,
2013-09-14 09:10:00,59.7,47.5,19.24,East,84,3.0,5.0,64,0.00,,,0.00,424,Wunderground v.1.15,2013-09-14 14:10:00,
2013-09-14 09:20:00,60.2,48.0,19.24,SE,135,3.0,3.0,64,0.00,,,0.00,450,Wunderground v.1.15,2013-09-14 14:20:00,
2013-09-14 09:30:00,60.6,48.4,19.24,ESE,122,3.0,5.0,64,0.00,,,0.00,492,Wunderground v.1.15,2013-09-14 14:30:00,
2013-09-14 09:35:00,60.9,48.6,19.24,ESE,116,4.0,5.0,64,0.00,,,0.00,357,Wunderground v.1.15,2013-09-14 14:35:00,
2013-09-14 09:45:00,62.4,49.6,19.24,SSW,206,3.0,3.0,63,0.00,,,0.00,471,Wunderground v.1.15,2013-09-14 14:45:00,
2013-09-14 09:55:00,63.3,49.6,19.24,SSE,147,3.0,6.0,61,0.00,,,0.00,520,Wunderground v.1.15,2013-09-14 14:55:00,
2013-09-14 10:00:00,63.7,50.0,19.24,SSE,149,3.0,3.0,61,0.00,,,0.00,483,Wunderground v.1.15,2013-09-14 15:00:00,
2013-09-14 10:10:00,65.2,51.0,19.24,South,179,3.0,3.0,60,0.00,,,0.00,610,Wunderground v.1.15,2013-09-14 15:10:00,
2013-09-14 10:20:00,66.1,50.4,19.24,SE,129,3.0,3.0,57,0.00,,,0.00,601,Wunderground v.1.15,2013-09-14 15:20:00,
2013-09-14 10:25:00,67.3,50.6,19.24,SW,232,3.0,3.0,55,0.00,,,0.00,640,Wunderground v.1.15,2013-09-14 15:25:00,
2013-09-14 10:35:00,68.3,49.5,19.24,SSW,192,4.0,4.0,51,0.00,,,0.00,664,Wunderground v.1.15,2013-09-14 15:35:00,
2013-09-14 10:40:00,68.5,49.1,19.24,SSE,150,3.0,4.0,50,0.00,,,0.00,677,Wunderground v.1.15,2013-09-14 15:40:00,
2013-09-14 10:50:00,69.8,51.4,19.24,SSW,206,3.0,4.0,52,0.00,,,0.00,701,Wunderground v.1.15,2013-09-14 15:50:00,
2013-09-14 11:00:00,69.5,50.0,19.24,SE,139,3.0,5.0,50,0.00,,,0.00,722,Wunderground v.1.15,2013-09-14 16:00:00,
2013-09-14 11:05:00,70.0,50.0,19.24,SSW,193,2.0,5.0,49,0.00,,,0.00,733,Wunderground v.1.15,2013-09-14 16:05:00,
2013-09-14 11:15:00,71.7,49.8,19.24,SW,225,4.0,8.0,46,0.00,,,0.00,756,Wunderground v.1.15,2013-09-14 16:15:00,
2013-09-14 11:25:00,71.1,50.4,19.24,SW,219,4.0,5.0,48,0.00,,,0.00,772,Wunderground v.1.15,2013-09-14 16:25:00,
2013-09-14 11:30:00,71.5,49.0,19.24,SSE,159,4.0,4.0,45,0.00,,,0.00,780,Wunderground v.1.15,2013-09-14 16:30:00,
2013-09-14 11:40:00,72.1,49.6,19.24,SSW,199,3.0,3.0,45,0.00,,,0.00,800,Wunderground v.1.15,2013-09-14 16:40:00,
2013-09-14 11:50:00,71.8,49.3,19.24,SSW,206,3.0,3.0,45,0.00,,,0.00,814,Wunderground v.1.15,2013-09-14 16:50:00,
2013-09-14 12:00:00,72.0,48.9,19.24,SSE,150,2.0,2.0,44,0.00,,,0.00,824,Wunderground v.1.15,2013-09-14 17:00:00,
2013-09-14 12:05:00,72.5,49.3,19.24,South,169,1.0,2.0,44,0.00,,,0.00,821,Wunderground v.1.15,2013-09-14 17:05:00,
2013-09-14 12:10:00,72.5,48.7,19.24,SE,146,2.0,2.0,43,0.00,,,0.00,842,Wunderground v.1.15,2013-09-14 17:10:00,
2013-09-14 12:20:00,73.3,50.1,26.44,SSW,192,1.0,1.0,44,0.00,,,0.00,824,Wunderground v.1.15,2013-09-14 17:20:00,
2013-09-14 12:30:00,73.4,48.3,26.44,SE,134,2.0,4.0,41,0.00,,,0.00,870,Wunderground v.1.15,2013-09-14 17:30:00,
2013-09-14 12:35:00,73.5,47.7,26.44,SE,124,3.0,4.0,40,0.00,,,0.00,867,Wunderground v.1.15,2013-09-14 17:35:00,
2013-09-14 12:40:00,73.4,48.3,26.44,SE,125,2.0,2.0,41,0.00,,,0.00,865,Wunderground v.1.15,2013-09-14 17:40:00,
2013-09-14 12:50:00,73.8,49.9,26.44,SSE,149,2.0,3.0,43,0.00,,,0.00,872,Wunderground v.1.15,2013-09-14 17:50:00,
2013-09-14 13:00:00,74.2,49.0,26.44,SSE,166,3.0,3.0,41,0.00,,,0.00,874,Wunderground v.1.15,2013-09-14 18:00:00,
2013-09-14 13:05:00,74.2,48.3,26.44,SW,214,3.0,5.0,40,0.00,,,0.00,877,Wunderground v.1.15,2013-09-14 18:05:00,
2013-09-14 13:15:00,74.5,47.9,26.44,East,90,2.0,3.0,39,0.00,,,0.00,874,Wunderground v.1.15,2013-09-14 18:15:00,
2013-09-14 13:25:00,74.9,48.3,26.44,SSE,148,4.0,4.0,39,0.00,,,0.00,881,Wunderground v.1.15,2013-09-14 18:25:00,
2013-09-14 13:35:00,75.4,48.7,26.44,ESE,109,2.0,3.0,39,0.00,,,0.00,884,Wunderground v.1.15,2013-09-14 18:35:00,
2013-09-14 13:40:00,75.1,47.0,26.44,East,99,3.0,3.0,37,0.00,,,0.00,814,Wunderground v.1.15,2013-09-14 18:40:00,
2013-09-14 13:50:00,75.8,46.9,21.91,SSE,148,0.0,2.0,36,0.00,,,0.00,875,Wunderground v.1.15,2013-09-14 18:50:00,
2013-09-14 13:55:00,76.1,48.6,21.91,SE,138,1.0,4.0,38,0.00,,,0.00,881,Wunderground v.1.15,2013-09-14 18:55:00,
2013-09-14 14:05:00,75.3,46.5,20.03,East,99,3.0,4.0,36,0.00,,,0.00,510,Wunderground v.1.15,2013-09-14 19:05:00,
2013-09-14 14:15:00,74.9,45.4,20.03,ENE,63,3.0,3.0,35,0.00,,,0.00,466,Wunderground v.1.15,2013-09-14 19:15:00,
2013-09-14 14:20:00,74.7,45.2,20.03,ENE,67,2.0,3.0,35,0.00,,,0.00,434,Wunderground v.1.15,2013-09-14 19:20:00,
2013-09-14 14:30:00,76.3,45.1,20.03,SE,137,2.0,2.0,33,0.00,,,0.00,837,Wunderground v.1.15,2013-09-14 19:30:00,
2013-09-14 14:40:00,76.2,45.8,20.03,ESE,121,2.0,3.0,34,0.00,,,0.00,817,Wunderground v.1.15,2013-09-14 19:40:00,
2013-09-14 14:45:00,76.5,47.6,19.37,ESE,105,3.0,3.0,36,0.00,,,0.00,837,Wunderground v.1.15,2013-09-14 19:45:00,
2013-09-14 14:55:00,76.7,44.6,19.37,NW,304,3.0,3.0,32,0.00,,,0.00,844,Wunderground v.1.15,2013-09-14 19:55:00,
2013-09-14 15:05:00,78.3,47.6,19.50,SW,214,4.0,4.0,34,0.00,,,0.00,796,Wunderground v.1.15,2013-09-14 20:05:00,
2013-09-14 15:10:00,77.7,46.3,19.46,South,175,3.0,3.0,33,0.00,,,0.00,652,Wunderground v.1.15,2013-09-14 20:10:00,
2013-09-14 15:20:00,76.5,44.4,19.47,SSE,151,4.0,5.0,32,0.00,,,0.00,383,Wunderground v.1.15,2013-09-14 20:20:00,
2013-09-14 15:30:00,77.4,46.8,19.47,SSE,168,3.0,3.0,34,0.00,,,0.00,659,Wunderground v.1.15,2013-09-14 20:30:00,
2013-09-14 15:35:00,77.1,45.0,19.47,South,178,4.0,4.0,32,0.00,,,0.00,664,Wunderground v.1.15,2013-09-14 20:35:00,
2013-09-14 15:45:00,77.3,44.3,19.47,South,172,2.0,4.0,31,0.00,,,0.00,652,Wunderground v.1.15,2013-09-14 20:45:00,
2013-09-14 15:50:00,77.3,44.3,19.47,SE,140,3.0,4.0,31,0.00,,,0.00,701,Wunderground v.1.15,2013-09-14 20:50:00,
2013-09-14 16:00:00,77.9,44.8,19.47,SSW,202,4.0,4.0,31,0.00,,,0.00,686,Wunderground v.1.15,2013-09-14 21:00:00,
2013-09-14 16:05:00,78.0,44.9,19.47,SSW,195,3.0,4.0,31,0.00,,,0.00,522,Wunderground v.1.15,2013-09-14 21:05:00,
2013-09-14 16:15:00,77.1,45.0,19.47,SE,142,3.0,3.0,32,0.00,,,0.00,425,Wunderground v.1.15,2013-09-14 21:15:00,
2013-09-14 16:25:00,77.0,45.7,19.47,SSE,153,2.0,3.0,33,0.00,,,0.00,443,Wunderground v.1.15,2013-09-14 21:25:00,
2013-09-14 16:30:00,76.7,46.2,19.47,South,175,3.0,3.0,34,0.00,,,0.00,422,Wunderground v.1.15,2013-09-14 21:30:00,
2013-09-14 16:40:00,76.9,46.4,20.61,SSE,153,2.0,2.0,34,0.00,,,0.00,454,Wunderground v.1.15,2013-09-14 21:40:00,
2013-09-14 16:45:00,76.6,46.1,20.61,SSE,164,3.0,3.0,34,0.00,,,0.00,346,Wunderground v.1.15,2013-09-14 21:45:00,
2013-09-14 16:55:00,75.9,47.0,21.17,SE,144,2.0,5.0,36,0.00,,,0.00,313,Wunderground v.1.15,2013-09-14 21:55:00,
2013-09-14 17:05:00,76.2,48.7,21.40,SE,135,2.0,2.0,38,0.00,,,0.00,380,Wunderground v.1.15,2013-09-14 22:05:00,
2013-09-14 17:10:00,76.9,47.9,21.40,SSW,213,1.0,2.0,36,0.00,,,0.00,330,Wunderground v.1.15,2013-09-14 22:10:00,
2013-09-14 17:20:00,76.6,45.3,20.18,SSE,149,2.0,2.0,33,0.00,,,0.00,334,Wunderground v.1.15,2013-09-14 22:20:00,
2013-09-14 17:30:00,76.1,44.9,19.26,SSW,197,2.0,2.0,33,0.00,,,0.00,153,Wunderground v.1.15,2013-09-14 22:30:00,
2013-09-14 17:35:00,75.7,44.5,19.26,SSW,196,2.0,2.0,33,0.00,,,0.00,142,Wunderground v.1.15,2013-09-14 22:35:00,
2013-09-14 17:45:00,74.6,44.4,19.59,South,169,1.0,2.0,34,0.00,,,0.00,123,Wunderground v.1.15,2013-09-14 22:45:00,
2013-09-14 17:55:00,74.4,45.0,19.56,SSE,163,1.0,1.0,35,0.00,,,0.00,309,Wunderground v.1.15,2013-09-14 22:55:00,
2013-09-14 18:00:00,74.8,46.1,19.56,SSE,155,1.0,2.0,36,0.00,,,0.00,332,Wunderground v.1.15,2013-09-14 23:00:00,
2013-09-14 18:10:00,75.3,45.7,19.56,SE,138,2.0,3.0,35,0.00,,,0.00,274,Wunderground v.1.15,2013-09-14 23:10:00,
2013-09-14 18:20:00,75.1,47.0,19.39,SSE,148,2.0,2.0,37,0.00,,,0.00,179,Wunderground v.1.15,2013-09-14 23:20:00,
2013-09-14 18:25:00,74.9,47.6,19.41,SSE,148,2.0,2.0,38,0.00,,,0.00,114,Wunderground v.1.15,2013-09-14 23:25:00,
2013-09-14 18:35:00,73.9,47.4,19.48,SSE,168,1.0,3.0,39,0.00,,,0.00,83,Wunderground v.1.15,2013-09-14 23:35:00,
2013-09-14 18:45:00,73.4,46.9,19.55,SSE,147,2.0,4.0,39,0.00,,,0.00,46,Wunderground v.1.15,2013-09-14 23:45:00,
2013-09-14 18:50:00,73.1,46.7,19.40,SSE,150,2.0,2.0,39,0.00,,,0.00,28,Wunderground v.1.15,2013-09-14 23:50:00,
2013-09-14 19:00:00,72.4,46.7,19.40,SE,146,2.0,2.0,40,0.00,,,0.00,18,Wunderground v.1.15,2013-09-15 00:00:00,
2013-09-14 19:10:00,71.6,47.9,19.40,SE,146,1.0,2.0,43,0.00,,,0.00,11,Wunderground v.1.15,2013-09-15 00:10:00,
2013-09-14 19:20:00,71.1,47.5,19.40,SE,146,2.0,2.0,43,0.00,,,0.00,0,Wunderground v.1.15,2013-09-15 00:20:00,
2013-09-14 19:25:00,70.6,47.6,19.40,SE,146,1.0,2.0,44,0.00,,,0.00,0,Wunderground v.1.15,2013-09-15 00:25:00,
2013-09-14 19:35:00,70.1,47.8,19.25,SE,146,1.0,2.0,45,0.00,,,0.00,0,Wunderground v.1.15,2013-09-15 00:35:00,
2013-09-14 19:45:00,69.5,47.8,19.55,SE,146,0.0,1.0,46,0.00,,,0.00,0,Wunderground v.1.15,2013-09-15 00:45:00,
2013-09-14 19:50:00,69.2,48.1,19.55,SE,146,0.0,0.0,47,0.00,,,0.00,0,Wunderground v.1.15,2013-09-15 00:50:00,
2013-09-14 20:00:00,68.8,48.3,19.55,SE,145,1.0,2.0,48,0.00,,,0.00,0,Wunderground v.1.15,2013-09-15 01:00:00,
2013-09-14 20:10:00,68.5,48.0,19.50,SE,145,2.0,2.0,48,0.00,,,0.00,0,Wunderground v.1.15,2013-09-15 01:10:00,
2013-09-14 20:15:00,68.3,47.8,19.50,SE,144,2.0,3.0,48,0.00,,,0.00,0,Wunderground v.1.15,2013-09-15 01:15:00,
2013-09-14 20:25:00,67.7,47.8,19.34,SE,144,1.0,1.0,49,0.00,,,0.00,0,Wunderground v.1.15,2013-09-15 01:25:00,
2013-09-14 20:35:00,67.3,48.0,19.34,SE,140,1.0,2.0,50,0.00,,,0.00,0,Wunderground v.1.15,2013-09-15 01:35:00,
2013-09-14 20:45:00,66.7,48.5,19.66,SE,140,1.0,1.0,52,0.00,,,0.00,0,Wunderground v.1.15,2013-09-15 01:45:00,
2013-09-14 20:50:00,66.6,47.9,19.35,SE,140,1.0,2.0,51,0.00,,,0.00,0,Wunderground v.1.15,2013-09-15 01:50:00,
2013-09-14 21:00:00,66.1,48.5,19.42,SE,141,1.0,1.0,53,0.00,,,0.00,0,Wunderground v.1.15,2013-09-15 02:00:00,
2013-09-14 21:10:00,66.1,48.0,19.42,SE,141,2.0,3.0,52,0.00,,,0.00,0,Wunderground v.1.15,2013-09-15 02:10:00,
2013-09-14 21:20:00,65.8,48.2,19.42,SE,144,2.0,2.0,53,0.00,,,0.00,0,Wunderground v.1.15,2013-09-15 02:20:00,
2013-09-14 21:30:00,65.4,48.3,19.42,SE,145,2.0,2.0,54,0.00,,,0.00,0,Wunderground v.1.15,2013-09-15 02:30:00,
2013-09-14 21:35:00,65.5,48.4,19.42,SSE,148,2.0,2.0,54,0.00,,,0.00,0,Wunderground v.1.15,2013-09-15 02:35:00,
2013-09-14 21:45:00,65.5,47.9,19.42,SSE,152,3.0,4.0,53,0.00,,,0.00,0,Wunderground v.1.15,2013-09-15 02:45:00,
2013-09-14 21:55:00,65.0,47.9,19.42,SE,145,2.0,3.0,54,0.00,,,0.00,0,Wunderground v.1.15,2013-09-15 02:55:00,
2013-09-14 22:00:00,64.9,48.3,19.42,SSE,150,2.0,3.0,55,0.00,,,0.00,0,Wunderground v.1.15,2013-09-15 03:00:00,
2013-09-14 22:10:00,64.7,48.6,19.42,SSE,153,2.0,3.0,56,0.00,,,0.00,0,Wunderground v.1.15,2013-09-15 03:10:00,
2013-09-14 22:20:00,64.5,48.4,19.42,SSE,147,2.0,3.0,56,0.00,,,0.00,0,Wunderground v.1.15,2013-09-15 03:20:00,
2013-09-14 22:25:00,64.6,48.5,19.42,SSE,167,3.0,4.0,56,0.00,,,0.00,0,Wunderground v.1.15,2013-09-15 03:25:00,
2013-09-14 22:35:00,64.5,48.9,19.42,SSE,153,3.0,3.0,57,0.00,,,0.00,0,Wunderground v.1.15,2013-09-15 03:35:00,
2013-09-14 22:45:00,64.7,49.1,19.42,South,171,3.0,6.0,57,0.00,,,0.00,0,Wunderground v.1.15,2013-09-15 03:45:00,
2013-09-14 22:50:00,64.6,49.0,19.42,SSE,159,3.0,3.0,57,0.00,,,0.00,0,Wunderground v.1.15,2013-09-15 03:50:00,
2013-09-14 23:00:00,64.5,49.4,19.42,South,171,2.0,2.0,58,0.00,,,0.00,0,Wunderground v.1.15,2013-09-15 04:00:00,
2013-09-14 23:05:00,64.4,49.3,19.42,SSE,150,2.0,4.0,58,0.00,,,0.00,0,Wunderground v.1.15,2013-09-15 04:05:00,
2013-09-14 23:10:00,64.5,49.4,19.42,South,169,3.0,3.0,58,0.00,,,0.00,0,Wunderground v.1.15,2013-09-15 04:10:00,
2013-09-14 23:15:00,64.4,49.3,19.42,SSE,151,2.0,3.0,58,0.00,,,0.00,0,Wunderground v.1.15,2013-09-15 04:15:00,
2013-09-14 23:20:00,64.4,49.3,19.42,South,173,2.0,4.0,58,0.00,,,0.00,0,Wunderground v.1.15,2013-09-15 04:20:00,
2013-09-14 23:30:00,63.8,49.2,19.42,SSE,161,2.0,2.0,59,0.00,,,0.00,0,Wunderground v.1.15,2013-09-15 04:30:00,
2013-09-14 23:35:00,63.6,49.5,19.42,South,189,2.0,2.0,60,0.00,,,0.00,0,Wunderground v.1.15,2013-09-15 04:35:00,
2013-09-14 23:45:00,63.6,49.5,19.42,SSE,163,2.0,2.0,60,0.00,,,0.00,0,Wunderground v.1.15,2013-09-15 04:45:00,
2013-09-14 23:55:00,63.5,49.8,19.42,South,175,2.0,3.0,61,0.00,,,0.00,0,Wunderground v.1.15,2013-09-15 04:55:00,